Time;durP1;ratioP1;P1;durP2;ratioP2;P2;SDS_P1;SDS_P2;PMS_P1;PMS_P2;Temp;Humidity;BMP_temperature;BMP_pressure;BME280_temperature;BME280_humidity;BME280_pressure;Samples;Min_cycle;Max_cycle;Signal;HPM_P1;HPM_P2
2020/12/05 00:01:41;;;;;;;80.22;29.30;;;;;;;-2.06;95.13;101327.82;1751354;81;21645;-72
2020/12/05 00:04:09;;;;;;;75.78;29.72;;;;;;;-2.10;95.17;101332.41;1751570;81;21147;-71
2020/12/05 00:06:37;;;;;;;86.25;31.87;;;;;;;-2.09;95.20;101339.34;1751392;81;21170;-72
2020/12/05 00:09:04;;;;;;;63.10;25.23;;;;;;;-2.09;95.21;101328.11;1751572;81;21220;-70
2020/12/05 00:11:32;;;;;;;63.60;27.15;;;;;;;-2.07;95.18;101320.92;1751462;81;22398;-72
2020/12/05 00:14:02;;;;;;;74.42;29.80;;;;;;;-2.07;95.26;101328.66;1751486;81;21153;-72
2020/12/05 00:16:30;;;;;;;55.90;23.62;;;;;;;-2.08;95.31;101332.05;1751687;81;21641;-71
2020/12/05 00:18:58;;;;;;;52.90;21.67;;;;;;;-2.06;95.25;101334.27;1751539;81;21623;-72
2020/12/05 00:21:26;;;;;;;63.70;25.50;;;;;;;-2.03;95.25;101335.66;1751532;81;22163;-71
2020/12/05 00:23:56;;;;;;;91.17;34.20;;;;;;;-2.02;95.22;101340.43;1751470;81;21377;-70
2020/12/05 00:26:24;;;;;;;110.20;37.05;;;;;;;-2.02;95.26;101336.14;1751380;81;21115;-72
2020/12/05 00:28:53;;;;;;;71.45;29.30;;;;;;;-2.02;95.17;101343.02;1751470;81;21645;-70
2020/12/05 00:31:22;;;;;;;99.07;39.70;;;;;;;-2.03;95.12;101334.78;1751325;81;21178;-70
2020/12/05 00:33:51;;;;;;;90.33;31.43;;;;;;;-2.05;95.14;101335.14;1715972;83;21155;-70
2020/12/05 00:36:24;;;;;;;76.97;31.05;;;;;;;-2.07;95.29;101329.05;1715690;83;21566;-72
2020/12/05 00:38:54;;;;;;;82.50;32.28;;;;;;;-2.05;95.31;101332.14;1715659;83;21132;-70
2020/12/05 00:41:22;;;;;;;78.13;28.20;;;;;;;-2.02;95.21;101332.27;1705469;83;21199;-70
2020/12/05 00:43:50;;;;;;;69.50;26.33;;;;;;;-2.01;95.23;101328.84;1699967;84;21199;-72
2020/12/05 00:46:18;;;;;;;77.27;30.68;;;;;;;-2.03;95.27;101330.91;1700377;84;21650;-70
2020/12/05 00:48:47;;;;;;;71.92;29.35;;;;;;;-2.03;95.30;101320.59;1700356;84;22236;-70
2020/12/05 00:51:15;;;;;;;83.25;33.05;;;;;;;-2.00;95.28;101331.91;1700283;83;21184;-70
2020/12/05 00:53:44;;;;;;;74.97;30.32;;;;;;;-2.01;95.28;101334.00;1737824;82;21127;-72
2020/12/05 00:56:21;;;;;;;84.65;35.33;;;;;;;-2.01;95.33;101334.00;1696488;84;21840;-71
2020/12/05 00:59:03;;;;;;;75.37;31.40;;;;;;;-1.94;95.32;101334.67;1844502;76;22671;-72
2020/12/05 01:01:31;;;;;;;76.50;28.27;;;;;;;-1.99;95.38;101345.27;1816370;78;21115;-73
2020/12/05 01:04:00;;;;;;;77.17;30.48;;;;;;;-1.98;95.37;101340.59;1816375;78;21195;-71
2020/12/05 01:06:28;;;;;;;72.15;32.00;;;;;;;-1.97;95.38;101342.33;1815951;79;21163;-71
2020/12/05 01:08:55;;;;;;;82.25;31.55;;;;;;;-1.97;95.36;101339.74;1816263;79;21681;-72
2020/12/05 01:11:24;;;;;;;81.92;29.70;;;;;;;-1.98;95.42;101327.67;1816244;79;21122;-72
2020/12/05 01:13:52;;;;;;;80.25;32.08;;;;;;;-1.99;95.47;101332.36;1809990;79;21118;-71
2020/12/05 01:16:19;;;;;;;75.35;29.25;;;;;;;-1.97;95.42;101317.80;1784391;80;22319;-73
2020/12/05 01:18:47;;;;;;;79.37;30.82;;;;;;;-1.96;95.43;101325.99;1784127;80;21119;-72
2020/12/05 01:21:16;;;;;;;94.20;31.93;;;;;;;-1.96;95.46;101327.70;1784144;79;21119;-72
2020/12/05 01:23:44;;;;;;;72.90;29.77;;;;;;;-1.96;95.47;101324.70;1784076;79;21588;-71
2020/12/05 01:26:12;;;;;;;72.20;29.12;;;;;;;-1.94;95.43;101328.64;1784135;80;21551;-71
2020/12/05 01:28:40;;;;;;;70.45;28.17;;;;;;;-1.93;95.44;101333.86;1784020;79;21605;-72
2020/12/05 01:31:10;;;;;;;82.80;29.27;;;;;;;-1.92;95.44;101325.27;1784106;80;21159;-71
2020/12/05 01:33:38;;;;;;;53.90;20.57;;;;;;;-1.96;95.53;101331.16;1784267;80;21131;-71
2020/12/05 01:36:06;;;;;;;69.20;27.95;;;;;;;-1.95;95.50;101323.89;1784124;80;21637;-68
2020/12/05 01:38:34;;;;;;;93.10;34.18;;;;;;;-1.92;95.49;101331.73;1784092;80;21630;-71
2020/12/05 01:41:03;;;;;;;88.40;33.75;;;;;;;-1.91;95.50;101330.02;1784277;80;21810;-74
2020/12/05 01:43:32;;;;;;;71.15;29.12;;;;;;;-1.92;95.56;101323.98;1784294;80;21618;-75
2020/12/05 01:46:06;;;;;;;74.27;29.70;;;;;;;-1.91;95.57;101319.30;1784210;80;21566;-73
2020/12/05 01:48:34;;;;;;;86.10;33.13;;;;;;;-1.92;95.57;101313.66;1784200;79;21775;-75
2020/12/05 01:51:02;;;;;;;94.00;34.45;;;;;;;-1.92;95.55;101308.49;1784334;80;21194;-73
2020/12/05 01:53:30;;;;;;;81.28;32.98;;;;;;;-1.89;95.58;101324.50;1784275;80;21445;-74
2020/12/05 01:55:58;;;;;;;65.87;29.20;;;;;;;-1.90;95.65;101327.50;1784155;80;21574;-75
2020/12/05 01:58:27;;;;;;;74.55;31.50;;;;;;;-1.88;95.60;101324.11;1784305;79;21642;-76
2020/12/05 02:00:55;;;;;;;84.45;33.55;;;;;;;-1.87;95.61;101329.72;1761636;80;21718;-77
2020/12/05 02:03:23;;;;;;;89.00;34.25;;;;;;;-1.91;95.69;101333.89;1732578;82;21619;-77
2020/12/05 02:06:22;;;;;;;74.50;30.95;;;;;;;-1.89;95.70;101327.08;1734942;82;22286;-75
2020/12/05 02:09:14;;;;;;;69.17;26.42;;;;;;;-1.87;95.70;101329.72;1731948;82;21611;-77
2020/12/05 02:11:44;;;;;;;70.30;27.02;;;;;;;-1.90;95.76;101330.08;1734612;82;21211;-77
2020/12/05 02:14:12;;;;;;;69.90;27.98;;;;;;;-1.85;95.71;101339.69;1732322;82;21587;-77
2020/12/05 02:16:40;;;;;;;79.07;30.88;;;;;;;-1.83;95.72;101338.03;1705624;82;21483;-78
2020/12/05 02:19:09;;;;;;;74.27;28.92;;;;;;;-1.87;95.82;101336.17;1732290;82;22265;-77
2020/12/05 02:21:38;;;;;;;70.32;28.92;;;;;;;-1.84;95.78;101329.81;1734376;82;21187;-76
2020/12/05 02:24:06;;;;;;;72.65;29.20;;;;;;;-1.83;95.79;101336.75;1703819;82;21587;-77
2020/12/05 02:26:35;;;;;;;72.65;31.80;;;;;;;-1.80;95.78;101342.88;1734217;82;21211;-78
2020/12/05 02:29:03;;;;;;;73.50;30.90;;;;;;;-1.81;95.81;101337.67;1732094;82;21628;-77
2020/12/05 02:31:31;;;;;;;65.55;28.25;;;;;;;-1.79;95.78;101338.61;1734351;82;22259;-76
2020/12/05 02:33:59;;;;;;;67.58;29.90;;;;;;;-1.77;95.72;101338.22;1731740;82;21204;-75
2020/12/05 02:36:27;;;;;;;67.53;27.60;;;;;;;-1.80;95.78;101339.41;1734205;82;21620;-76
2020/12/05 02:39:02;;;;;;;68.28;28.57;;;;;;;-1.81;95.83;101331.22;1732096;81;21639;-76
2020/12/05 02:41:30;;;;;;;81.78;31.60;;;;;;;-1.78;95.79;101334.77;1734314;82;21180;-75
2020/12/05 02:44:01;;;;;;;74.20;28.52;;;;;;;-1.77;95.81;101343.38;1703069;82;21708;-75
2020/12/05 02:46:28;;;;;;;80.67;31.37;;;;;;;-1.77;95.83;101335.63;1705962;82;21184;-76
2020/12/05 02:48:57;;;;;;;65.47;28.42;;;;;;;-1.76;95.90;101343.86;1732520;82;21191;-78
2020/12/05 02:51:24;;;;;;;61.63;25.60;;;;;;;-1.76;95.84;101343.86;1735864;82;21671;-78
2020/12/05 02:53:56;;;;;;;69.92;30.62;;;;;;;-1.77;95.86;101356.29;1732982;82;21445;-78
2020/12/05 02:56:23;;;;;;;73.47;29.15;;;;;;;-1.76;95.93;101364.52;1734810;82;22342;-78
2020/12/05 02:58:50;;;;;;;70.30;26.42;;;;;;;-1.72;95.90;101353.47;1727825;81;21202;-77
2020/12/05 03:01:18;;;;;;;68.33;27.55;;;;;;;-1.71;95.87;101344.88;1733050;82;21210;-77
2020/12/05 03:03:46;;;;;;;71.07;29.30;;;;;;;-1.71;95.91;101343.59;1733298;82;21150;-77
2020/12/05 03:06:14;;;;;;;64.60;26.52;;;;;;;-1.69;95.87;101343.23;1733394;82;21404;-75
2020/12/05 03:08:42;;;;;;;67.67;27.87;;;;;;;-1.68;95.84;101344.97;1733174;82;22282;-76
2020/12/05 03:11:10;;;;;;;63.02;25.92;;;;;;;-1.68;95.84;101342.39;1733245;82;21659;-77
2020/12/05 03:13:38;;;;;;;68.60;28.05;;;;;;;-1.68;95.91;101347.55;1733165;82;21716;-76
2020/12/05 03:16:07;;;;;;;73.20;25.68;;;;;;;-1.69;95.87;101350.98;1733844;82;21616;-76
2020/12/05 03:18:35;;;;;;;60.78;27.48;;;;;;;-1.71;95.89;101367.70;1763849;81;21157;-76
2020/12/05 03:21:03;;;;;;;56.40;24.70;;;;;;;-1.71;95.97;101361.67;1764047;81;21411;-75
2020/12/05 03:23:31;;;;;;;73.30;28.98;;;;;;;-1.71;95.96;101352.63;1721603;83;21593;-77
2020/12/05 03:26:00;;;;;;;66.30;27.20;;;;;;;-1.69;95.99;101353.14;1758216;81;21177;-74
2020/12/05 03:28:28;;;;;;;63.28;22.60;;;;;;;-1.70;95.98;101353.11;1758178;81;22141;-76
2020/12/05 03:30:56;;;;;;;53.87;22.62;;;;;;;-1.70;95.85;101349.23;1758254;81;21158;-76
2020/12/05 03:33:24;;;;;;;69.22;27.20;;;;;;;-1.71;95.87;101344.88;1758606;81;21335;-77
2020/12/05 03:35:54;;;;;;;83.50;28.30;;;;;;;-1.72;95.91;101349.17;1758397;81;21660;-76
2020/12/05 03:38:22;;;;;;;74.55;26.15;;;;;;;-1.72;95.91;101356.05;1757957;81;21157;-75
2020/12/05 03:40:50;;;;;;;54.95;20.27;;;;;;;-1.76;95.96;101352.48;1758175;81;21169;-76
2020/12/05 03:43:18;;;;;;;64.60;28.30;;;;;;;-1.75;95.92;101353.34;1758606;81;21094;-77
2020/12/05 03:45:45;;;;;;;56.95;25.10;;;;;;;-1.75;95.91;101352.96;1758824;81;21298;-80
2020/12/05 03:48:13;;;;;;;50.92;20.52;;;;;;;-1.73;95.95;101355.57;1759376;81;21549;-79
2020/12/05 03:50:42;;;;;;;67.00;25.75;;;;;;;-1.74;95.92;101361.16;1759176;81;21141;-79
2020/12/05 03:53:10;;;;;;;63.40;26.60;;;;;;;-1.74;95.94;101352.12;1759280;81;22142;-79
2020/12/05 03:55:38;;;;;;;67.17;26.52;;;;;;;-1.71;95.92;101347.46;1733278;81;21165;-76
2020/12/05 03:58:06;;;;;;;69.80;28.12;;;;;;;-1.76;95.92;101347.73;1758158;80;21188;-77
2020/12/05 04:00:35;;;;;;;63.52;25.88;;;;;;;-1.77;95.95;101353.71;1756762;81;21616;-77
2020/12/05 04:03:03;;;;;;;79.42;29.23;;;;;;;-1.74;95.96;101357.70;1758128;81;21554;-76
2020/12/05 04:05:31;;;;;;;69.90;29.32;;;;;;;-1.73;95.96;101369.78;1758172;81;21145;-76
2020/12/05 04:07:58;;;;;;;56.45;24.60;;;;;;;-1.69;95.94;101356.14;1758317;81;21161;-76
2020/12/05 04:10:27;;;;;;;57.70;24.60;;;;;;;-1.68;95.84;101368.21;1758207;81;22246;-76
2020/12/05 04:12:55;;;;;;;75.80;29.35;;;;;;;-1.68;95.79;101350.14;1758194;81;21701;-76
2020/12/05 04:15:23;;;;;;;62.73;27.10;;;;;;;-1.72;95.81;101367.25;1758116;81;21141;-76
2020/12/05 04:17:51;;;;;;;77.45;29.65;;;;;;;-1.70;95.84;101367.31;1758071;81;21165;-76
2020/12/05 04:20:19;;;;;;;71.70;28.55;;;;;;;-1.68;95.77;101368.21;1758100;81;21149;-76
2020/12/05 04:22:47;;;;;;;59.65;25.17;;;;;;;-1.68;95.76;101370.80;1758076;81;22347;-76
2020/12/05 04:25:15;;;;;;;71.35;29.27;;;;;;;-1.71;95.79;101383.63;1758159;81;21190;-77
2020/12/05 04:27:42;;;;;;;62.60;25.10;;;;;;;-1.71;95.79;101378.45;1758012;81;21180;-76
2020/12/05 04:30:11;;;;;;;69.07;27.22;;;;;;;-1.70;95.78;101384.98;1758016;81;21169;-77
2020/12/05 04:32:39;;;;;;;62.20;25.82;;;;;;;-1.74;95.82;101388.70;1758243;81;21700;-76
2020/12/05 04:35:08;;;;;;;61.50;25.97;;;;;;;-1.73;95.87;101387.44;1758242;81;22277;-76
2020/12/05 04:37:36;;;;;;;55.90;23.67;;;;;;;-1.71;95.88;101390.08;1757946;81;21181;-76
2020/12/05 04:40:05;;;;;;;58.38;24.92;;;;;;;-1.71;95.88;101387.50;1758342;81;21141;-77
2020/12/05 04:42:43;;;;;;;59.67;24.98;;;;;;;-1.73;95.91;101390.44;1758154;81;21621;-75
2020/12/05 04:45:12;;;;;;;57.62;24.80;;;;;;;-1.71;95.91;101382.33;1758351;81;21137;-76
2020/12/05 04:47:40;;;;;;;61.88;24.82;;;;;;;-1.71;95.83;101383.63;1758063;81;21357;-77
2020/12/05 04:50:09;;;;;;;64.15;25.82;;;;;;;-1.70;95.81;101390.56;1763773;80;21186;-77
2020/12/05 04:52:47;;;;;;;61.18;25.12;;;;;;;-1.71;95.84;101383.63;1775784;80;21697;-78
2020/12/05 04:55:15;;;;;;;59.65;24.63;;;;;;;-1.72;95.83;101371.55;1779221;80;21603;-79
2020/12/05 04:57:52;;;;;;;59.63;26.33;;;;;;;-1.71;95.75;101377.17;1778237;80;21619;-77
2020/12/05 05:00:20;;;;;;;66.40;26.93;;;;;;;-1.72;95.67;101375.00;1783428;79;21161;-77
2020/12/05 05:02:48;;;;;;;65.65;25.15;;;;;;;-1.71;95.67;101373.30;1774451;80;21568;-74
2020/12/05 05:05:16;;;;;;;57.48;23.00;;;;;;;-1.72;95.70;101366.39;1774047;80;21117;-74
2020/12/05 05:07:50;;;;;;;51.77;23.45;;;;;;;-1.72;95.67;101379.30;1773899;80;21205;-76
2020/12/05 05:10:28;;;;;;;57.60;23.55;;;;;;;-1.73;95.61;101377.52;1773781;80;21125;-76
2020/12/05 05:13:19;;;;;;;70.90;26.27;;;;;;;-1.75;95.59;101374.01;1736981;82;22251;-74
2020/12/05 05:15:47;;;;;;;47.40;19.10;;;;;;;-1.79;95.78;101374.77;1773691;80;21128;-75
2020/12/05 05:18:15;;;;;;;59.83;26.40;;;;;;;-1.80;95.80;101383.31;1773827;80;21596;-74
2020/12/05 05:20:45;;;;;;;60.50;24.70;;;;;;;-1.81;95.84;101388.03;1773708;80;21719;-75
2020/12/05 05:23:18;;;;;;;59.10;25.93;;;;;;;-1.78;95.84;101389.41;1774148;80;21647;-76
2020/12/05 05:25:57;;;;;;;56.18;23.30;;;;;;;-1.78;95.83;101392.87;1773849;80;21132;-76
2020/12/05 05:28:34;;;;;;;58.98;25.15;;;;;;;-1.77;95.83;101397.61;1737041;82;21631;-77
2020/12/05 05:31:29;;;;;;;59.63;25.97;;;;;;;-1.77;95.81;101391.16;1773762;80;21172;-76
2020/12/05 05:33:54;;;;;;;57.45;25.15;;;;;;;-1.77;95.78;101391.16;1737759;80;21171;-77
2020/12/05 05:36:29;;;;;;;51.45;18.50;;;;;;;-1.75;95.80;101393.37;1773809;80;21623;-76
2020/12/05 05:39:05;;;;;;;63.83;25.88;;;;;;;-1.77;95.83;101389.48;1773806;80;22094;-75
2020/12/05 05:41:36;;;;;;;67.92;25.05;;;;;;;-1.80;95.87;101392.36;1773738;80;21652;-73
2020/12/05 05:44:10;;;;;;;81.30;31.55;;;;;;;-1.79;95.86;101401.88;1737213;82;21579;-75
2020/12/05 05:46:41;;;;;;;52.93;20.40;;;;;;;-1.76;95.88;101398.97;1773816;80;21152;-75
2020/12/05 05:49:15;;;;;;;61.58;27.50;;;;;;;-1.76;95.83;101400.26;1737258;81;21580;-75
2020/12/05 05:51:48;;;;;;;71.77;29.63;;;;;;;-1.75;95.85;101397.25;1773881;80;21484;-75
2020/12/05 05:54:31;;;;;;;84.87;31.27;;;;;;;-1.75;95.83;101407.58;1737297;82;21125;-77
2020/12/05 05:57:10;;;;;;;64.72;27.67;;;;;;;-1.73;95.78;101389.15;1774926;80;21611;-76
2020/12/05 05:59:44;;;;;;;81.42;33.28;;;;;;;-1.74;95.76;101396.45;1758819;80;21122;-75
2020/12/05 06:02:14;;;;;;;77.00;31.48;;;;;;;-1.70;95.74;101404.34;1746736;82;21573;-79
2020/12/05 06:04:45;;;;;;;75.20;30.32;;;;;;;-1.66;95.71;101401.86;1746453;82;21384;-76
2020/12/05 06:07:17;;;;;;;76.28;26.90;;;;;;;-1.67;95.62;101410.45;1746374;82;21135;-75
2020/12/05 06:09:53;;;;;;;77.35;28.32;;;;;;;-1.74;95.65;101408.06;1746647;82;21194;-75
2020/12/05 06:12:27;;;;;;;81.60;32.05;;;;;;;-1.73;95.68;101406.80;1746523;82;21601;-76
2020/12/05 06:14:56;;;;;;;68.95;25.55;;;;;;;-1.74;95.65;101399.03;1746811;82;21609;-77
2020/12/05 06:17:24;;;;;;;76.02;29.65;;;;;;;-1.72;95.66;101416.75;1746606;81;21507;-76
2020/12/05 06:19:54;;;;;;;90.70;34.18;;;;;;;-1.75;95.71;101402.42;1746475;82;21134;-78
2020/12/05 06:22:45;;;;;;;92.08;35.13;;;;;;;-1.71;95.65;101404.28;1746280;81;21178;-78
2020/12/05 06:25:14;;;;;;;;;;;;;;;-1.66;95.67;101410.47;1749540;82;21157;-78
2020/12/05 06:27:47;;;;;;;94.80;36.83;;;;;;;-1.64;95.64;101413.98;1746899;82;20228;-78
2020/12/05 06:30:15;;;;;;;86.08;32.48;;;;;;;-1.62;95.62;101421.38;1746398;80;21206;-78
2020/12/05 06:32:46;;;;;;;78.12;30.15;;;;;;;-1.66;95.50;101404.44;1760518;80;21606;-77
2020/12/05 06:35:25;;;;;;;91.22;35.38;;;;;;;-1.67;95.51;101415.19;1782128;80;21202;-78
2020/12/05 06:37:55;;;;;;;78.90;31.17;;;;;;;-1.69;95.55;101411.67;1782162;80;21198;-74
2020/12/05 06:40:23;;;;;;;95.72;37.78;;;;;;;-1.64;95.56;101418.28;1783019;80;21182;-76
2020/12/05 06:42:56;;;;;;;90.95;34.92;;;;;;;-1.66;95.58;101414.77;1782659;80;21326;-77
2020/12/05 06:45:37;;;;;;;94.07;36.70;;;;;;;-1.63;95.53;101422.61;1752845;81;21173;-78
2020/12/05 06:48:13;;;;;;;73.80;28.42;;;;;;;-1.64;95.51;101426.91;1752777;80;21617;-77
2020/12/05 06:50:44;;;;;;;84.92;34.18;;;;;;;-1.64;95.51;101430.78;1758728;80;21637;-78
2020/12/05 06:53:21;;;;;;;;;;;;;;;-1.64;95.58;101435.95;1784953;80;21990;-77
2020/12/05 06:55:51;;;;;;;98.78;36.73;;;;;;;-1.61;95.53;101428.32;1772527;80;22268;-77
2020/12/05 06:58:29;;;;;;;84.10;32.75;;;;;;;-1.57;95.57;101428.86;1781607;79;21574;-77
2020/12/05 07:00:58;;;;;;;84.05;29.87;;;;;;;-1.58;95.56;101429.70;1770656;80;21204;-79
2020/12/05 07:03:31;;;;;;;86.53;34.13;;;;;;;-1.59;95.53;101446.02;1768085;80;21119;-76
2020/12/05 07:06:00;;;;;;;90.80;34.98;;;;;;;-1.60;95.52;101448.14;1748514;82;21151;-76
2020/12/05 07:08:38;;;;;;;83.30;31.62;;;;;;;-1.60;95.45;101435.66;1748393;82;21282;-76
2020/12/05 07:11:16;;;;;;;86.35;35.75;;;;;;;-1.61;95.44;101452.86;1748251;80;21162;-77
2020/12/05 07:13:50;;;;;;;87.05;32.53;;;;;;;-1.59;95.47;101436.97;1748296;82;21673;-77
2020/12/05 07:16:25;;;;;;;80.97;31.25;;;;;;;-1.57;95.46;101435.32;1748403;82;21185;-76
2020/12/05 07:19:00;;;;;;;111.10;42.45;;;;;;;-1.56;95.45;101438.38;1748383;82;21527;-77
2020/12/05 07:21:29;;;;;;;103.65;36.70;;;;;;;-1.54;95.48;101439.32;1748146;80;22269;-78
2020/12/05 07:23:57;;;;;;;102.82;34.88;;;;;;;-1.54;95.52;101449.66;1730506;82;21629;-77
2020/12/05 07:26:25;;;;;;;96.02;37.25;;;;;;;-1.52;95.46;101462.60;1748271;80;22309;-76
2020/12/05 07:28:56;;;;;;;100.60;35.28;;;;;;;-1.51;95.41;101460.08;1730401;82;21169;-75
2020/12/05 07:31:24;;;;;;;;;;;;;;;-1.51;95.37;101465.25;1759503;80;21194;-76
2020/12/05 07:33:52;;;;;;;116.37;37.93;;;;;;;-1.55;95.33;101472.42;1724742;83;21217;-77
2020/12/05 07:36:20;;;;;;;112.35;41.95;;;;;;;-1.60;95.47;101471.39;1760658;81;21165;-78
2020/12/05 07:38:48;;;;;;;97.30;37.88;;;;;;;-1.58;95.50;101474.05;1779203;80;21183;-77
2020/12/05 07:41:20;;;;;;;106.30;40.50;;;;;;;-1.55;95.43;101480.59;1760768;81;21184;-77
2020/12/05 07:43:48;;;;;;;103.22;40.65;;;;;;;-1.55;95.41;101486.62;1779466;80;21131;-77
2020/12/05 07:46:17;;;;;;;105.92;42.98;;;;;;;-1.55;95.36;101476.72;1760722;81;21392;-78
2020/12/05 07:48:44;;;;;;;81.05;28.50;;;;;;;-1.56;95.35;101483.59;1760635;81;21189;-76
2020/12/05 07:51:17;;;;;;;107.60;38.95;;;;;;;-1.57;95.48;101489.58;1760903;81;21580;-72
2020/12/05 07:53:46;;;;;;;118.70;46.75;;;;;;;-1.55;95.43;101484.05;1760694;81;21201;-74
2020/12/05 07:56:22;;;;;;;79.70;33.60;;;;;;;-1.49;95.41;101483.39;1760686;81;21638;-72
2020/12/05 07:58:56;;;;;;;81.78;31.57;;;;;;;-1.50;95.31;101479.03;1757838;81;22233;-73
2020/12/05 08:01:51;;;;;;;72.82;29.45;;;;;;;-1.51;95.16;101489.79;1771532;80;21179;-72
2020/12/05 08:04:51;;;;;;;103.45;38.23;;;;;;;-1.60;95.08;101480.44;1746840;82;21691;-71
2020/12/05 08:07:35;;;;;;;;;;;;;;;-1.57;95.11;101484.83;1780192;80;21554;-74
2020/12/05 08:10:15;;;;;;;117.25;42.60;;;;;;;-1.57;95.14;101486.12;1783287;80;20254;-73
2020/12/05 08:13:03;;;;;;;113.20;40.63;;;;;;;-1.57;95.22;101499.91;1782985;80;21380;-72
2020/12/05 08:15:35;;;;;;;108.95;40.43;;;;;;;-1.55;95.21;101498.26;1783204;80;21160;-72
2020/12/05 08:18:03;;;;;;;;;;;;;;;-1.58;95.35;101497.30;1786062;80;21642;-72
2020/12/05 08:20:31;;;;;;;125.40;45.03;;;;;;;-1.57;95.39;101503.78;1783185;80;20282;-72
2020/12/05 08:23:00;;;;;;;134.07;47.88;;;;;;;-1.57;95.50;101508.95;1783157;80;21135;-72
2020/12/05 08:25:28;;;;;;;110.60;41.45;;;;;;;-1.53;95.47;101504.36;1783155;80;22325;-73
2020/12/05 08:27:56;;;;;;;114.95;40.90;;;;;;;-1.53;95.45;101509.53;1760995;80;21198;-72
2020/12/05 08:30:24;;;;;;;100.18;39.00;;;;;;;-1.53;95.46;101515.98;1783341;80;21119;-72
2020/12/05 08:33:01;;;;;;;99.92;39.27;;;;;;;-1.50;95.33;101509.62;1783190;80;22163;-72
2020/12/05 08:35:32;;;;;;;107.12;40.73;;;;;;;-1.51;95.32;101514.34;1760659;80;21561;-74
2020/12/05 08:38:02;;;;;;;106.25;38.92;;;;;;;-1.48;95.25;101516.14;1784892;80;21333;-72
2020/12/05 08:40:30;;;;;;;98.50;37.38;;;;;;;-1.46;95.27;101525.25;1784170;80;21637;-72
2020/12/05 08:42:57;;;;;;;99.35;40.55;;;;;;;-1.48;95.29;101535.10;1784756;80;21154;-73
2020/12/05 08:45:25;;;;;;;87.10;35.08;;;;;;;-1.46;95.23;101529.13;1784901;80;21158;-72
2020/12/05 08:47:53;;;;;;;105.32;40.95;;;;;;;-1.45;95.13;101523.12;1784710;80;21146;-71
2020/12/05 08:50:29;;;;;;;99.30;38.98;;;;;;;-1.46;95.12;101523.95;1784810;80;21377;-72
2020/12/05 08:52:59;;;;;;;94.00;36.95;;;;;;;-1.46;95.09;101517.08;1784873;80;21182;-73
2020/12/05 08:55:29;;;;;;;101.18;41.08;;;;;;;-1.43;95.07;101511.13;1776619;80;21586;-74
2020/12/05 08:58:03;;;;;;;89.85;34.23;;;;;;;-1.42;95.09;101510.33;1753925;81;21150;-72
2020/12/05 09:00:35;;;;;;;88.60;37.45;;;;;;;-1.46;95.05;101513.62;1756223;81;21153;-72
2020/12/05 09:03:03;;;;;;;104.10;40.52;;;;;;;-1.45;94.99;101514.07;1760253;81;21218;-72
2020/12/05 09:05:31;;;;;;;94.83;38.05;;;;;;;-1.41;94.94;101513.36;1760727;81;21636;-72
2020/12/05 09:08:00;;;;;;;103.25;40.83;;;;;;;-1.42;94.96;101508.61;1760944;81;21154;-73
2020/12/05 09:10:29;;;;;;;94.72;36.83;;;;;;;-1.42;94.92;101520.66;1760658;80;21561;-73
2020/12/05 09:13:06;;;;;;;87.02;37.28;;;;;;;-1.38;94.86;101519.91;1760449;81;21198;-74
2020/12/05 09:15:35;;;;;;;85.07;35.98;;;;;;;-1.37;94.79;101515.23;1760282;81;21667;-73
2020/12/05 09:18:03;;;;;;;103.17;42.03;;;;;;;-1.37;94.71;101521.69;1760703;81;21654;-74
2020/12/05 09:20:31;;;;;;;84.62;36.00;;;;;;;-1.38;94.65;101514.74;1768206;78;21606;-74
2020/12/05 09:23:00;;;;;;;77.62;30.90;;;;;;;-1.40;94.54;101503.47;1792204;80;21083;-71
2020/12/05 09:25:31;;;;;;;81.42;34.27;;;;;;;-1.48;94.48;101523.47;1792329;78;21630;-73
2020/12/05 09:28:00;;;;;;;91.82;35.95;;;;;;;-1.48;94.52;101517.02;1792301;80;21370;-74
2020/12/05 09:30:28;;;;;;;88.47;36.65;;;;;;;-1.52;94.54;101515.17;1785826;80;21606;-74
2020/12/05 09:32:57;;;;;;;82.45;34.88;;;;;;;-1.55;94.63;101516.34;1732025;81;21176;-74
2020/12/05 09:35:25;;;;;;;98.27;37.78;;;;;;;-1.54;94.61;101514.63;1757698;81;21186;-72
2020/12/05 09:37:55;;;;;;;139.80;53.73;;;;;;;-1.56;94.65;101517.61;1731870;82;22176;-71
2020/12/05 09:40:23;;;;;;;76.70;32.33;;;;;;;-1.57;94.69;101516.70;1757653;81;21372;-72
2020/12/05 09:42:51;;;;;;;81.80;32.93;;;;;;;-1.55;94.70;101508.59;1731897;82;21216;-74
2020/12/05 09:45:21;;;;;;;88.05;35.00;;;;;;;-1.55;94.60;101507.30;1757572;81;21175;-76
2020/12/05 09:47:49;;;;;;;92.17;37.58;;;;;;;-1.55;94.63;101503.42;1757554;81;21186;-75
2020/12/05 09:50:17;;;;;;;79.60;33.90;;;;;;;-1.53;94.68;101505.65;1757744;81;21171;-74
2020/12/05 09:52:45;;;;;;;82.45;33.58;;;;;;;-1.52;94.52;101507.43;1757597;81;22063;-76
2020/12/05 09:55:13;;;;;;;78.95;29.12;;;;;;;-1.57;94.21;101497.32;1732002;82;21648;-75
2020/12/05 09:57:40;;;;;;;81.05;33.08;;;;;;;-1.60;94.13;101495.94;1757669;81;21738;-75
2020/12/05 10:00:11;;;;;;;79.40;34.13;;;;;;;-1.66;94.14;101497.01;1743903;81;21627;-75
2020/12/05 10:02:40;;;;;;;100.07;39.78;;;;;;;-1.70;94.19;101499.05;1747581;82;21175;-75
2020/12/05 10:05:10;;;;;;;75.70;33.48;;;;;;;-1.66;94.16;101503.47;1729227;83;22170;-77
2020/12/05 10:07:39;;;;;;;83.45;34.35;;;;;;;-1.66;94.14;101504.75;1781616;80;21187;-74
2020/12/05 10:10:09;;;;;;;96.02;43.23;;;;;;;-1.65;94.05;101512.99;1782035;79;21158;-75
2020/12/05 10:12:37;;;;;;;69.20;28.85;;;;;;;-1.64;93.99;101512.15;1781980;80;21183;-75
2020/12/05 10:15:05;;;;;;;88.07;35.03;;;;;;;-1.63;93.88;101511.34;1782136;80;21171;-77
2020/12/05 10:17:36;;;;;;;109.42;44.00;;;;;;;-1.64;93.92;101515.16;1781919;80;21472;-76
2020/12/05 10:20:07;;;;;;;;;;;;;;;-1.66;93.77;101517.67;1784719;79;21219;-77
2020/12/05 10:22:36;;;;;;;86.25;32.93;;;;;;;-1.63;93.65;101522.97;1781961;80;20262;-79
2020/12/05 10:25:05;;;;;;;90.10;36.90;;;;;;;-1.70;93.35;101509.38;1782185;79;22308;-76
2020/12/05 10:27:33;;;;;;;88.33;35.50;;;;;;;-1.78;93.50;101523.29;1781862;80;21178;-75
2020/12/05 10:30:01;;;;;;;68.80;27.00;;;;;;;-1.78;93.46;101521.13;1781890;80;21372;-75
2020/12/05 10:32:29;;;;;;;73.47;31.65;;;;;;;-1.83;93.45;101520.09;1781924;80;21171;-76
2020/12/05 10:35:00;;;;;;;88.85;37.05;;;;;;;-1.87;93.47;101516.92;1782021;80;21115;-74
2020/12/05 10:37:28;;;;;;;87.65;38.40;;;;;;;-1.88;93.46;101510.89;1783119;80;21178;-75
2020/12/05 10:39:56;;;;;;;76.45;31.17;;;;;;;-1.92;93.41;101511.17;1782349;80;21131;-76
2020/12/05 10:42:24;;;;;;;71.15;31.82;;;;;;;-1.94;93.37;101520.56;1782031;80;21207;-76
2020/12/05 10:44:54;;;;;;;50.45;21.02;;;;;;;-2.01;93.36;101513.42;1782703;80;21660;-76
2020/12/05 10:47:22;;;;;;;59.73;26.95;;;;;;;-2.04;93.38;101524.95;1783204;80;21604;-75
2020/12/05 10:49:51;;;;;;;62.25;28.15;;;;;;;-2.04;93.44;101528.81;1781856;80;21139;-74
2020/12/05 10:52:19;;;;;;;75.12;31.20;;;;;;;-2.03;93.41;101523.23;1782107;80;21868;-75
2020/12/05 10:54:47;;;;;;;62.48;28.00;;;;;;;-2.04;93.09;101540.44;1781787;80;21261;-77
2020/12/05 10:57:15;;;;;;;43.78;18.25;;;;;;;-2.04;92.95;101532.69;1781798;80;21642;-75
2020/12/05 10:59:43;;;;;;;64.85;27.10;;;;;;;-2.06;92.81;101531.75;1782735;80;21211;-75
2020/12/05 11:02:11;;;;;;;64.85;25.55;;;;;;;-2.02;92.79;101530.17;1784637;80;21198;-75
2020/12/05 11:04:38;;;;;;;64.85;30.60;;;;;;;-2.02;92.61;101538.80;1784879;80;21413;-74
2020/12/05 11:07:06;;;;;;;63.93;29.33;;;;;;;-2.03;92.51;101533.14;1784792;80;21614;-76
2020/12/05 11:09:35;;;;;;;64.55;28.47;;;;;;;-1.99;92.46;101541.89;1784737;80;21603;-76
2020/12/05 11:12:03;;;;;;;72.47;32.70;;;;;;;-2.01;92.28;101546.98;1786022;80;21127;-75
2020/12/05 11:14:32;;;;;;;70.03;31.80;;;;;;;-2.07;92.17;101531.30;1786456;80;21155;-75
2020/12/05 11:17:02;;;;;;;63.50;30.23;;;;;;;-2.05;92.14;101544.23;1786676;80;21158;-75
2020/12/05 11:19:30;;;;;;;67.47;31.05;;;;;;;-2.07;91.84;101535.55;1786565;78;21781;-75
2020/12/05 11:21:58;;;;;;;60.58;28.07;;;;;;;-2.11;91.66;101542.33;1786496;80;21138;-72
2020/12/05 11:24:26;;;;;;;60.03;27.98;;;;;;;-2.14;91.19;101537.93;1765781;78;23734;-74